sensor_id;sensor_type;location;lat;lon;timestamp;temperature;humidity
71177;DHT22;58877;51.992;4.504;2023-10-19T00:00:36;14.51;84.59
71177;DHT22;58877;51.992;4.504;2023-10-19T00:03:05;14.52;84.86
71177;DHT22;58877;51.992;4.504;2023-10-19T00:05:33;14.57;84.79
71177;DHT22;58877;51.992;4.504;2023-10-19T00:08:06;14.58;84.87
71177;DHT22;58877;51.992;4.504;2023-10-19T00:10:43;14.68;84.84
71177;DHT22;58877;51.992;4.504;2023-10-19T00:13:11;14.74;84.84
71177;DHT22;58877;51.992;4.504;2023-10-19T00:15:42;14.76;84.76
71177;DHT22;58877;51.992;4.504;2023-10-19T00:18:18;14.79;84.74
71177;DHT22;58877;51.992;4.504;2023-10-19T00:20:46;14.79;84.72
71177;DHT22;58877;51.992;4.504;2023-10-19T00:23:15;14.76;84.56
71177;DHT22;58877;51.992;4.504;2023-10-19T00:26:02;14.81;84.92
71177;DHT22;58877;51.992;4.504;2023-10-19T00:28:38;14.84;84.92
71177;DHT22;58877;51.992;4.504;2023-10-19T00:31:04;14.91;84.86
71177;DHT22;58877;51.992;4.504;2023-10-19T00:33:33;14.92;84.73
71177;DHT22;58877;51.992;4.504;2023-10-19T00:36:04;14.92;84.91
71177;DHT22;58877;51.992;4.504;2023-10-19T00:38:37;15.00;84.80
71177;DHT22;58877;51.992;4.504;2023-10-19T00:41:03;15.00;84.78
71177;DHT22;58877;51.992;4.504;2023-10-19T00:43:33;15.03;84.87
71177;DHT22;58877;51.992;4.504;2023-10-19T00:46:22;15.09;84.76
71177;DHT22;58877;51.992;4.504;2023-10-19T00:48:57;15.13;84.88
71177;DHT22;58877;51.992;4.504;2023-10-19T00:51:29;15.15;84.69
71177;DHT22;58877;51.992;4.504;2023-10-19T00:54:14;15.15;84.88
71177;DHT22;58877;51.992;4.504;2023-10-19T00:56:43;15.26;84.73
71177;DHT22;58877;51.992;4.504;2023-10-19T00:59:26;15.32;84.74
71177;DHT22;58877;51.992;4.504;2023-10-19T01:02:01;15.30;85.01
71177;DHT22;58877;51.992;4.504;2023-10-19T01:04:46;15.40;85.00
71177;DHT22;58877;51.992;4.504;2023-10-19T01:07:17;15.46;84.86
71177;DHT22;58877;51.992;4.504;2023-10-19T01:09:58;15.51;84.93
71177;DHT22;58877;51.992;4.504;2023-10-19T01:12:30;15.53;85.01
71177;DHT22;58877;51.992;4.504;2023-10-19T01:15:14;15.46;85.61
71177;DHT22;58877;51.992;4.504;2023-10-19T01:17:48;15.59;85.89
71177;DHT22;58877;51.992;4.504;2023-10-19T01:20:20;15.47;87.29
71177;DHT22;58877;51.992;4.504;2023-10-19T01:23:08;15.66;86.91
71177;DHT22;58877;51.992;4.504;2023-10-19T01:25:57;15.73;87.13
71177;DHT22;58877;51.992;4.504;2023-10-19T01:31:18;15.97;87.09
71177;DHT22;58877;51.992;4.504;2023-10-19T01:33:53;16.03;86.99
71177;DHT22;58877;51.992;4.504;2023-10-19T01:36:25;16.07;87.17
71177;DHT22;58877;51.992;4.504;2023-10-19T01:39:04;16.11;87.30
71177;DHT22;58877;51.992;4.504;2023-10-19T01:41:41;16.17;87.20
71177;DHT22;58877;51.992;4.504;2023-10-19T01:44:26;16.27;87.05
71177;DHT22;58877;51.992;4.504;2023-10-19T01:46:59;16.34;86.72
71177;DHT22;58877;51.992;4.504;2023-10-19T01:49:38;16.34;86.65
71177;DHT22;58877;51.992;4.504;2023-10-19T01:52:06;16.29;86.72
71177;DHT22;58877;51.992;4.504;2023-10-19T01:54:35;16.29;86.91
71177;DHT22;58877;51.992;4.504;2023-10-19T01:57:06;16.35;86.79
71177;DHT22;58877;51.992;4.504;2023-10-19T01:59:39;16.37;86.66
71177;DHT22;58877;51.992;4.504;2023-10-19T02:02:21;16.35;86.69
71177;DHT22;58877;51.992;4.504;2023-10-19T02:04:48;16.34;86.81
71177;DHT22;58877;51.992;4.504;2023-10-19T02:07:16;16.42;86.39
71177;DHT22;58877;51.992;4.504;2023-10-19T02:09:46;16.47;86.43
71177;DHT22;58877;51.992;4.504;2023-10-19T02:12:22;16.45;86.25
71177;DHT22;58877;51.992;4.504;2023-10-19T02:14:51;16.40;86.14
71177;DHT22;58877;51.992;4.504;2023-10-19T02:17:26;16.40;86.25
71177;DHT22;58877;51.992;4.504;2023-10-19T02:19:51;16.41;86.22
71177;DHT22;58877;51.992;4.504;2023-10-19T02:22:18;16.44;86.10
71177;DHT22;58877;51.992;4.504;2023-10-19T02:24:44;16.48;86.05
71177;DHT22;58877;51.992;4.504;2023-10-19T02:27:11;16.49;85.58
71177;DHT22;58877;51.992;4.504;2023-10-19T02:29:43;16.44;85.57
71177;DHT22;58877;51.992;4.504;2023-10-19T02:32:09;16.59;85.77
71177;DHT22;58877;51.992;4.504;2023-10-19T02:34:35;16.61;85.44
71177;DHT22;58877;51.992;4.504;2023-10-19T02:37:01;16.61;85.36
71177;DHT22;58877;51.992;4.504;2023-10-19T02:39:27;16.64;85.20
71177;DHT22;58877;51.992;4.504;2023-10-19T02:41:53;16.51;85.11
71177;DHT22;58877;51.992;4.504;2023-10-19T02:44:23;16.49;85.35
71177;DHT22;58877;51.992;4.504;2023-10-19T02:46:49;16.48;85.24
71177;DHT22;58877;51.992;4.504;2023-10-19T02:49:18;16.55;85.26
71177;DHT22;58877;51.992;4.504;2023-10-19T02:51:45;16.54;84.98
71177;DHT22;58877;51.992;4.504;2023-10-19T02:54:15;16.47;85.07
71177;DHT22;58877;51.992;4.504;2023-10-19T02:56:59;16.52;84.91
71177;DHT22;58877;51.992;4.504;2023-10-19T02:59:32;16.49;85.20
71177;DHT22;58877;51.992;4.504;2023-10-19T03:02:00;16.45;84.71
71177;DHT22;58877;51.992;4.504;2023-10-19T03:04:38;16.47;84.68
71177;DHT22;58877;51.992;4.504;2023-10-19T03:07:14;16.51;84.82
71177;DHT22;58877;51.992;4.504;2023-10-19T03:09:41;16.48;84.79
71177;DHT22;58877;51.992;4.504;2023-10-19T03:12:20;16.54;84.69
71177;DHT22;58877;51.992;4.504;2023-10-19T03:14:46;16.54;84.41
71177;DHT22;58877;51.992;4.504;2023-10-19T03:17:15;16.45;84.16
71177;DHT22;58877;51.992;4.504;2023-10-19T03:19:41;16.40;84.03
71177;DHT22;58877;51.992;4.504;2023-10-19T03:22:10;16.40;84.07
71177;DHT22;58877;51.992;4.504;2023-10-19T03:24:37;16.37;83.73
71177;DHT22;58877;51.992;4.504;2023-10-19T03:27:11;16.32;83.88
71177;DHT22;58877;51.992;4.504;2023-10-19T03:29:50;16.14;84.08
71177;DHT22;58877;51.992;4.504;2023-10-19T03:32:22;16.18;84.06
71177;DHT22;58877;51.992;4.504;2023-10-19T03:34:57;16.20;83.87
71177;DHT22;58877;51.992;4.504;2023-10-19T03:37:28;16.10;83.96
71177;DHT22;58877;51.992;4.504;2023-10-19T03:39:58;16.15;83.87
71177;DHT22;58877;51.992;4.504;2023-10-19T03:42:25;16.08;83.80
71177;DHT22;58877;51.992;4.504;2023-10-19T03:45:00;16.11;83.73
71177;DHT22;58877;51.992;4.504;2023-10-19T03:47:33;16.10;83.65
71177;DHT22;58877;51.992;4.504;2023-10-19T03:50:04;16.04;83.51
71177;DHT22;58877;51.992;4.504;2023-10-19T03:52:38;16.08;83.60
71177;DHT22;58877;51.992;4.504;2023-10-19T03:55:08;16.10;83.56
71177;DHT22;58877;51.992;4.504;2023-10-19T03:57:49;16.14;83.50
71177;DHT22;58877;51.992;4.504;2023-10-19T04:00:20;16.18;83.44
71177;DHT22;58877;51.992;4.504;2023-10-19T04:02:54;16.10;83.50
71177;DHT22;58877;51.992;4.504;2023-10-19T04:05:20;16.14;83.54
71177;DHT22;58877;51.992;4.504;2023-10-19T04:07:50;16.21;83.30
71177;DHT22;58877;51.992;4.504;2023-10-19T04:10:20;16.15;83.10
71177;DHT22;58877;51.992;4.504;2023-10-19T04:12:55;16.18;83.12
71177;DHT22;58877;51.992;4.504;2023-10-19T04:15:25;16.18;82.88
71177;DHT22;58877;51.992;4.504;2023-10-19T04:17:54;16.15;83.04
71177;DHT22;58877;51.992;4.504;2023-10-19T04:20:24;16.14;82.74
71177;DHT22;58877;51.992;4.504;2023-10-19T04:23:04;16.15;82.61
71177;DHT22;58877;51.992;4.504;2023-10-19T04:25:36;16.21;82.86
71177;DHT22;58877;51.992;4.504;2023-10-19T04:28:03;16.22;82.64
71177;DHT22;58877;51.992;4.504;2023-10-19T04:30:32;16.21;82.63
71177;DHT22;58877;51.992;4.504;2023-10-19T04:33:04;16.25;82.72
71177;DHT22;58877;51.992;4.504;2023-10-19T04:35:37;16.25;82.39
71177;DHT22;58877;51.992;4.504;2023-10-19T04:38:04;16.28;82.38
71177;DHT22;58877;51.992;4.504;2023-10-19T04:40:34;16.25;82.27
71177;DHT22;58877;51.992;4.504;2023-10-19T04:43:03;16.28;82.39
71177;DHT22;58877;51.992;4.504;2023-10-19T04:45:30;16.31;82.21
71177;DHT22;58877;51.992;4.504;2023-10-19T04:47:56;16.28;82.24
71177;DHT22;58877;51.992;4.504;2023-10-19T04:50:23;16.20;82.45
71177;DHT22;58877;51.992;4.504;2023-10-19T04:52:49;16.14;82.39
71177;DHT22;58877;51.992;4.504;2023-10-19T04:55:14;16.18;82.51
71177;DHT22;58877;51.992;4.504;2023-10-19T04:57:40;16.25;82.30
71177;DHT22;58877;51.992;4.504;2023-10-19T05:00:06;16.32;82.24
71177;DHT22;58877;51.992;4.504;2023-10-19T05:02:38;16.27;82.25
71177;DHT22;58877;51.992;4.504;2023-10-19T05:05:04;16.18;82.00
71177;DHT22;58877;51.992;4.504;2023-10-19T05:07:30;16.24;82.33
71177;DHT22;58877;51.992;4.504;2023-10-19T05:09:56;16.18;82.45
71177;DHT22;58877;51.992;4.504;2023-10-19T05:12:24;16.27;82.17
71177;DHT22;58877;51.992;4.504;2023-10-19T05:14:50;16.17;82.60
71177;DHT22;58877;51.992;4.504;2023-10-19T05:17:16;16.15;82.44
71177;DHT22;58877;51.992;4.504;2023-10-19T05:19:42;16.29;82.45
71177;DHT22;58877;51.992;4.504;2023-10-19T05:22:09;16.25;82.47
71177;DHT22;58877;51.992;4.504;2023-10-19T05:24:36;16.22;82.44
71177;DHT22;58877;51.992;4.504;2023-10-19T05:27:02;16.20;82.35
71177;DHT22;58877;51.992;4.504;2023-10-19T05:29:31;16.24;82.58
71177;DHT22;58877;51.992;4.504;2023-10-19T05:31:58;16.13;82.86
71177;DHT22;58877;51.992;4.504;2023-10-19T05:34:24;16.18;82.64
71177;DHT22;58877;51.992;4.504;2023-10-19T05:36:52;16.24;82.52
71177;DHT22;58877;51.992;4.504;2023-10-19T05:39:19;16.25;82.37
71177;DHT22;58877;51.992;4.504;2023-10-19T05:41:49;16.24;82.63
71177;DHT22;58877;51.992;4.504;2023-10-19T05:44:15;16.25;82.67
71177;DHT22;58877;51.992;4.504;2023-10-19T05:46:40;16.28;82.48
71177;DHT22;58877;51.992;4.504;2023-10-19T05:49:09;16.28;82.48
71177;DHT22;58877;51.992;4.504;2023-10-19T05:51:37;16.27;82.51
71177;DHT22;58877;51.992;4.504;2023-10-19T05:54:04;16.29;82.58
71177;DHT22;58877;51.992;4.504;2023-10-19T05:56:33;16.24;82.66
71177;DHT22;58877;51.992;4.504;2023-10-19T05:59:02;16.31;82.67
71177;DHT22;58877;51.992;4.504;2023-10-19T06:01:30;16.27;82.61
71177;DHT22;58877;51.992;4.504;2023-10-19T06:03:55;16.38;82.49
71177;DHT22;58877;51.992;4.504;2023-10-19T06:06:22;16.41;82.48
71177;DHT22;58877;51.992;4.504;2023-10-19T06:08:48;16.42;82.31
71177;DHT22;58877;51.992;4.504;2023-10-19T06:11:15;16.37;82.59
71177;DHT22;58877;51.992;4.504;2023-10-19T06:13:43;16.35;82.67
71177;DHT22;58877;51.992;4.504;2023-10-19T06:16:09;16.40;82.62
71177;DHT22;58877;51.992;4.504;2023-10-19T06:18:35;16.37;82.47
71177;DHT22;58877;51.992;4.504;2023-10-19T06:21:01;16.35;82.87
71177;DHT22;58877;51.992;4.504;2023-10-19T06:23:29;16.32;82.62
71177;DHT22;58877;51.992;4.504;2023-10-19T06:25:57;16.42;82.74
71177;DHT22;58877;51.992;4.504;2023-10-19T06:28:30;16.45;82.58
71177;DHT22;58877;51.992;4.504;2023-10-19T06:31:02;16.52;82.32
71177;DHT22;58877;51.992;4.504;2023-10-19T06:33:30;16.55;82.22
71177;DHT22;58877;51.992;4.504;2023-10-19T06:36:04;16.59;82.02
71177;DHT22;58877;51.992;4.504;2023-10-19T06:38:30;16.62;82.14
71177;DHT22;58877;51.992;4.504;2023-10-19T06:41:13;16.71;81.82
71177;DHT22;58877;51.992;4.504;2023-10-19T06:43:42;16.69;81.82
71177;DHT22;58877;51.992;4.504;2023-10-19T06:46:08;16.71;81.83
71177;DHT22;58877;51.992;4.504;2023-10-19T06:48:39;16.71;81.68
71177;DHT22;58877;51.992;4.504;2023-10-19T06:51:05;16.71;81.80
71177;DHT22;58877;51.992;4.504;2023-10-19T06:53:34;16.71;81.82
71177;DHT22;58877;51.992;4.504;2023-10-19T06:58:35;16.76;81.59
71177;DHT22;58877;51.992;4.504;2023-10-19T07:01:49;16.79;81.67
71177;DHT22;58877;51.992;4.504;2023-10-19T07:04:40;16.82;81.44
71177;DHT22;58877;51.992;4.504;2023-10-19T07:07:50;16.80;81.55
71177;DHT22;58877;51.992;4.504;2023-10-19T07:10:45;16.82;81.47
71177;DHT22;58877;51.992;4.504;2023-10-19T07:16:14;16.82;81.78
71177;DHT22;58877;51.992;4.504;2023-10-19T07:18:52;16.90;81.48
71177;DHT22;58877;51.992;4.504;2023-10-19T07:21:19;16.90;81.36
71177;DHT22;58877;51.992;4.504;2023-10-19T07:23:46;16.93;81.38
71177;DHT22;58877;51.992;4.504;2023-10-19T07:26:17;16.95;81.16
71177;DHT22;58877;51.992;4.504;2023-10-19T07:28:55;17.05;81.08
71177;DHT22;58877;51.992;4.504;2023-10-19T07:31:21;17.13;80.94
71177;DHT22;58877;51.992;4.504;2023-10-19T07:34:03;17.20;80.68
71177;DHT22;58877;51.992;4.504;2023-10-19T07:36:58;17.23;80.64
71177;DHT22;58877;51.992;4.504;2023-10-19T07:39:25;17.23;80.44
71177;DHT22;58877;51.992;4.504;2023-10-19T07:41:58;17.29;80.36
71177;DHT22;58877;51.992;4.504;2023-10-19T07:44:23;17.30;80.34
71177;DHT22;58877;51.992;4.504;2023-10-19T07:46:50;17.32;80.32
71177;DHT22;58877;51.992;4.504;2023-10-19T07:49:19;17.30;80.37
71177;DHT22;58877;51.992;4.504;2023-10-19T07:52:13;17.30;80.41
71177;DHT22;58877;51.992;4.504;2023-10-19T07:54:51;17.34;80.41
71177;DHT22;58877;51.992;4.504;2023-10-19T07:57:30;17.42;80.49
71177;DHT22;58877;51.992;4.504;2023-10-19T08:00:05;17.47;80.30
71177;DHT22;58877;51.992;4.504;2023-10-19T08:02:44;17.50;80.01
71177;DHT22;58877;51.992;4.504;2023-10-19T08:05:20;17.53;79.89
71177;DHT22;58877;51.992;4.504;2023-10-19T08:07:48;17.49;79.83
71177;DHT22;58877;51.992;4.504;2023-10-19T08:10:19;17.46;80.09
71177;DHT22;58877;51.992;4.504;2023-10-19T08:12:48;17.50;80.11
71177;DHT22;58877;51.992;4.504;2023-10-19T08:15:17;17.60;79.98
71177;DHT22;58877;51.992;4.504;2023-10-19T08:17:45;17.63;79.88
71177;DHT22;58877;51.992;4.504;2023-10-19T08:20:14;17.63;79.81
71177;DHT22;58877;51.992;4.504;2023-10-19T08:23:04;17.71;79.57
71177;DHT22;58877;51.992;4.504;2023-10-19T08:25:32;17.70;79.45
71177;DHT22;58877;51.992;4.504;2023-10-19T08:28:01;17.69;79.58
71177;DHT22;58877;51.992;4.504;2023-10-19T08:30:27;17.74;79.68
71177;DHT22;58877;51.992;4.504;2023-10-19T08:33:14;17.81;79.44
71177;DHT22;58877;51.992;4.504;2023-10-19T08:35:46;17.91;79.42
71177;DHT22;58877;51.992;4.504;2023-10-19T08:38:11;17.98;79.46
71177;DHT22;58877;51.992;4.504;2023-10-19T08:40:38;18.07;79.40
71177;DHT22;58877;51.992;4.504;2023-10-19T08:43:08;18.11;79.15
71177;DHT22;58877;51.992;4.504;2023-10-19T08:45:39;18.21;79.17
71177;DHT22;58877;51.992;4.504;2023-10-19T08:48:11;18.28;78.62
71177;DHT22;58877;51.992;4.504;2023-10-19T08:50:41;18.48;78.74
71177;DHT22;58877;51.992;4.504;2023-10-19T08:53:14;18.56;78.25
71177;DHT22;58877;51.992;4.504;2023-10-19T08:55:46;18.62;77.99
71177;DHT22;58877;51.992;4.504;2023-10-19T08:58:16;18.63;78.01
71177;DHT22;58877;51.992;4.504;2023-10-19T09:00:49;18.72;77.81
71177;DHT22;58877;51.992;4.504;2023-10-19T09:03:24;18.72;77.68
71177;DHT22;58877;51.992;4.504;2023-10-19T09:05:50;18.66;77.81
71177;DHT22;58877;51.992;4.504;2023-10-19T09:08:20;18.68;77.79
71177;DHT22;58877;51.992;4.504;2023-10-19T09:10:53;18.75;77.63
71177;DHT22;58877;51.992;4.504;2023-10-19T09:13:22;18.83;77.27
71177;DHT22;58877;51.992;4.504;2023-10-19T09:15:48;18.82;77.35
71177;DHT22;58877;51.992;4.504;2023-10-19T09:18:19;18.79;77.50
71177;DHT22;58877;51.992;4.504;2023-10-19T09:20:52;18.90;77.90
71177;DHT22;58877;51.992;4.504;2023-10-19T09:23:25;19.04;77.34
71177;DHT22;58877;51.992;4.504;2023-10-19T09:26:02;19.12;76.64
71177;DHT22;58877;51.992;4.504;2023-10-19T09:28:34;19.23;76.40
71177;DHT22;58877;51.992;4.504;2023-10-19T09:31:02;19.31;76.29
71177;DHT22;58877;51.992;4.504;2023-10-19T09:33:45;19.41;76.30
71177;DHT22;58877;51.992;4.504;2023-10-19T09:36:25;19.33;76.03
71177;DHT22;58877;51.992;4.504;2023-10-19T09:38:56;19.38;76.05
71177;DHT22;58877;51.992;4.504;2023-10-19T09:42:00;19.37;76.06
71177;DHT22;58877;51.992;4.504;2023-10-19T09:44:59;19.34;76.04
71177;DHT22;58877;51.992;4.504;2023-10-19T09:47:51;19.33;75.82
71177;DHT22;58877;51.992;4.504;2023-10-19T09:50:22;19.26;76.00
71177;DHT22;58877;51.992;4.504;2023-10-19T09:52:59;19.27;76.16
71177;DHT22;58877;51.992;4.504;2023-10-19T09:55:38;19.30;75.87
71177;DHT22;58877;51.992;4.504;2023-10-19T10:01:01;19.44;75.97
71177;DHT22;58877;51.992;4.504;2023-10-19T10:04:00;19.57;75.74
71177;DHT22;58877;51.992;4.504;2023-10-19T10:09:21;19.73;75.59
71177;DHT22;58877;51.992;4.504;2023-10-19T10:11:59;19.85;75.36
71177;DHT22;58877;51.992;4.504;2023-10-19T10:15:05;19.88;75.25
71177;DHT22;58877;51.992;4.504;2023-10-19T10:17:44;19.92;74.80
71177;DHT22;58877;51.992;4.504;2023-10-19T10:23:16;19.94;74.55
71177;DHT22;58877;51.992;4.504;2023-10-19T10:25:46;20.08;74.86
71177;DHT22;58877;51.992;4.504;2023-10-19T10:28:17;20.30;74.71
71177;DHT22;58877;51.992;4.504;2023-10-19T10:31:14;20.36;74.22
71177;DHT22;58877;51.992;4.504;2023-10-19T10:33:49;20.43;73.06
71177;DHT22;58877;51.992;4.504;2023-10-19T10:36:19;20.56;72.94
71177;DHT22;58877;51.992;4.504;2023-10-19T10:38:56;20.56;72.49
71177;DHT22;58877;51.992;4.504;2023-10-19T10:41:38;20.40;72.62
71177;DHT22;58877;51.992;4.504;2023-10-19T10:44:07;20.38;72.77
71177;DHT22;58877;51.992;4.504;2023-10-19T10:46:36;20.29;72.89
71177;DHT22;58877;51.992;4.504;2023-10-19T10:49:08;20.19;73.13
71177;DHT22;58877;51.992;4.504;2023-10-19T10:51:39;20.25;73.14
71177;DHT22;58877;51.992;4.504;2023-10-19T10:54:07;20.17;73.53
71177;DHT22;58877;51.992;4.504;2023-10-19T10:56:40;20.26;73.60
71177;DHT22;58877;51.992;4.504;2023-10-19T10:59:26;20.39;73.40
71177;DHT22;58877;51.992;4.504;2023-10-19T11:02:16;20.53;73.31
71177;DHT22;58877;51.992;4.504;2023-10-19T11:04:50;20.75;72.69
71177;DHT22;58877;51.992;4.504;2023-10-19T11:07:20;20.80;71.91
71177;DHT22;58877;51.992;4.504;2023-10-19T11:09:57;20.82;71.38
71177;DHT22;58877;51.992;4.504;2023-10-19T11:12:27;20.69;71.90
71177;DHT22;58877;51.992;4.504;2023-10-19T11:14:54;20.60;71.95
71177;DHT22;58877;51.992;4.504;2023-10-19T11:17:24;20.57;72.25
71177;DHT22;58877;51.992;4.504;2023-10-19T11:19:55;20.60;72.16
71177;DHT22;58877;51.992;4.504;2023-10-19T11:22:48;20.53;72.04
71177;DHT22;58877;51.992;4.504;2023-10-19T11:25:23;20.49;72.57
71177;DHT22;58877;51.992;4.504;2023-10-19T11:27:59;20.46;72.73
71177;DHT22;58877;51.992;4.504;2023-10-19T11:30:34;20.49;72.43
71177;DHT22;58877;51.992;4.504;2023-10-19T11:33:01;20.55;72.65
71177;DHT22;58877;51.992;4.504;2023-10-19T11:35:32;20.53;72.52
71177;DHT22;58877;51.992;4.504;2023-10-19T11:38:08;20.59;72.25
71177;DHT22;58877;51.992;4.504;2023-10-19T11:40:33;20.69;72.05
71177;DHT22;58877;51.992;4.504;2023-10-19T11:42:59;20.76;72.00
71177;DHT22;58877;51.992;4.504;2023-10-19T11:45:35;20.89;71.96
71177;DHT22;58877;51.992;4.504;2023-10-19T11:48:04;20.99;71.44
71177;DHT22;58877;51.992;4.504;2023-10-19T11:50:33;21.00;71.61
71177;DHT22;58877;51.992;4.504;2023-10-19T11:52:59;21.00;71.51
71177;DHT22;58877;51.992;4.504;2023-10-19T11:55:25;20.96;71.39
71177;DHT22;58877;51.992;4.504;2023-10-19T11:57:51;20.94;71.52
71177;DHT22;58877;51.992;4.504;2023-10-19T12:00:24;20.89;71.60
71177;DHT22;58877;51.992;4.504;2023-10-19T12:03:00;20.75;72.03
71177;DHT22;58877;51.992;4.504;2023-10-19T12:05:25;20.63;72.10
71177;DHT22;58877;51.992;4.504;2023-10-19T12:07:51;20.56;72.28
71177;DHT22;58877;51.992;4.504;2023-10-19T12:10:18;20.55;72.54
71177;DHT22;58877;51.992;4.504;2023-10-19T12:12:49;20.53;72.54
71177;DHT22;58877;51.992;4.504;2023-10-19T12:15:15;20.45;72.75
71177;DHT22;58877;51.992;4.504;2023-10-19T12:17:41;20.35;72.94
71177;DHT22;58877;51.992;4.504;2023-10-19T12:20:07;20.21;72.83
71177;DHT22;58877;51.992;4.504;2023-10-19T12:22:39;20.19;73.00
71177;DHT22;58877;51.992;4.504;2023-10-19T12:25:08;20.12;72.97
71177;DHT22;58877;51.992;4.504;2023-10-19T12:27:34;20.05;73.11
71177;DHT22;58877;51.992;4.504;2023-10-19T12:30:03;19.98;73.34
71177;DHT22;58877;51.992;4.504;2023-10-19T12:32:43;19.91;73.64
71177;DHT22;58877;51.992;4.504;2023-10-19T12:35:08;19.85;73.71
71177;DHT22;58877;51.992;4.504;2023-10-19T12:37:38;19.78;74.27
71177;DHT22;58877;51.992;4.504;2023-10-19T12:40:14;19.82;74.25
71177;DHT22;58877;51.992;4.504;2023-10-19T12:42:53;19.89;74.05
71177;DHT22;58877;51.992;4.504;2023-10-19T12:45:24;19.94;73.77
71177;DHT22;58877;51.992;4.504;2023-10-19T12:47:51;19.91;73.95
71177;DHT22;58877;51.992;4.504;2023-10-19T12:50:23;19.95;74.22
71177;DHT22;58877;51.992;4.504;2023-10-19T12:52:50;20.01;74.36
71177;DHT22;58877;51.992;4.504;2023-10-19T12:55:30;20.02;74.27
71177;DHT22;58877;51.992;4.504;2023-10-19T12:58:00;20.09;74.33
71177;DHT22;58877;51.992;4.504;2023-10-19T13:00:33;20.12;74.15
71177;DHT22;58877;51.992;4.504;2023-10-19T13:03:07;20.09;74.38
71177;DHT22;58877;51.992;4.504;2023-10-19T13:05:39;20.07;74.49
71177;DHT22;58877;51.992;4.504;2023-10-19T13:08:07;20.07;74.46
71177;DHT22;58877;51.992;4.504;2023-10-19T13:10:35;20.11;74.32
71177;DHT22;58877;51.992;4.504;2023-10-19T13:13:10;20.12;74.10
71177;DHT22;58877;51.992;4.504;2023-10-19T13:15:44;20.11;74.22
71177;DHT22;58877;51.992;4.504;2023-10-19T13:18:11;20.07;74.62
71177;DHT22;58877;51.992;4.504;2023-10-19T13:20:57;20.01;74.86
71177;DHT22;58877;51.992;4.504;2023-10-19T13:23:22;19.98;74.98
71177;DHT22;58877;51.992;4.504;2023-10-19T13:25:51;19.85;75.33
71177;DHT22;58877;51.992;4.504;2023-10-19T13:28:23;19.78;75.68
71177;DHT22;58877;51.992;4.504;2023-10-19T13:30:49;19.82;75.65
71177;DHT22;58877;51.992;4.504;2023-10-19T13:33:17;19.74;76.01
71177;DHT22;58877;51.992;4.504;2023-10-19T13:35:45;19.70;76.29
71177;DHT22;58877;51.992;4.504;2023-10-19T13:38:11;19.71;76.61
71177;DHT22;58877;51.992;4.504;2023-10-19T13:40:43;19.78;76.57
71177;DHT22;58877;51.992;4.504;2023-10-19T13:43:11;19.82;76.32
71177;DHT22;58877;51.992;4.504;2023-10-19T13:45:41;19.84;76.19
71177;DHT22;58877;51.992;4.504;2023-10-19T13:48:11;19.85;76.28
71177;DHT22;58877;51.992;4.504;2023-10-19T13:50:56;19.74;76.64
71177;DHT22;58877;51.992;4.504;2023-10-19T13:53:26;19.65;77.00
71177;DHT22;58877;51.992;4.504;2023-10-19T13:55:53;19.60;76.89
71177;DHT22;58877;51.992;4.504;2023-10-19T13:58:19;19.54;77.10
71177;DHT22;58877;51.992;4.504;2023-10-19T14:00:44;19.43;77.53
71177;DHT22;58877;51.992;4.504;2023-10-19T14:03:14;19.35;77.83
71177;DHT22;58877;51.992;4.504;2023-10-19T14:05:45;19.26;78.17
71177;DHT22;58877;51.992;4.504;2023-10-19T14:08:16;19.16;78.34
71177;DHT22;58877;51.992;4.504;2023-10-19T14:10:45;19.19;78.47
71177;DHT22;58877;51.992;4.504;2023-10-19T14:13:11;19.13;78.57
71177;DHT22;58877;51.992;4.504;2023-10-19T14:15:40;19.09;78.67
71177;DHT22;58877;51.992;4.504;2023-10-19T14:18:08;19.04;78.86
71177;DHT22;58877;51.992;4.504;2023-10-19T14:20:36;19.02;79.04
71177;DHT22;58877;51.992;4.504;2023-10-19T14:23:05;19.00;79.00
71177;DHT22;58877;51.992;4.504;2023-10-19T14:25:39;18.95;79.07
71177;DHT22;58877;51.992;4.504;2023-10-19T14:28:12;18.92;79.35
71177;DHT22;58877;51.992;4.504;2023-10-19T14:30:48;18.96;79.37
71177;DHT22;58877;51.992;4.504;2023-10-19T14:33:15;18.96;79.23
71177;DHT22;58877;51.992;4.504;2023-10-19T14:35:44;18.93;79.39
71177;DHT22;58877;51.992;4.504;2023-10-19T14:38:12;18.96;79.49
71177;DHT22;58877;51.992;4.504;2023-10-19T14:40:51;19.00;79.49
71177;DHT22;58877;51.992;4.504;2023-10-19T14:43:17;19.06;79.65
71177;DHT22;58877;51.992;4.504;2023-10-19T14:45:52;19.13;79.76
71177;DHT22;58877;51.992;4.504;2023-10-19T14:48:22;19.24;79.50
71177;DHT22;58877;51.992;4.504;2023-10-19T14:50:49;19.31;79.28
71177;DHT22;58877;51.992;4.504;2023-10-19T14:53:17;19.34;79.27
71177;DHT22;58877;51.992;4.504;2023-10-19T14:55:45;19.47;79.06
71177;DHT22;58877;51.992;4.504;2023-10-19T14:58:14;19.60;78.45
71177;DHT22;58877;51.992;4.504;2023-10-19T15:00:40;20.14;77.09
71177;DHT22;58877;51.992;4.504;2023-10-19T15:03:20;20.84;75.48
71177;DHT22;58877;51.992;4.504;2023-10-19T15:05:52;21.22;73.40
71177;DHT22;58877;51.992;4.504;2023-10-19T15:08:25;21.58;72.48
71177;DHT22;58877;51.992;4.504;2023-10-19T15:10:56;21.04;72.29
71177;DHT22;58877;51.992;4.504;2023-10-19T15:13:22;20.52;73.75
71177;DHT22;58877;51.992;4.504;2023-10-19T15:15:57;20.33;74.41
71177;DHT22;58877;51.992;4.504;2023-10-19T15:18:46;20.14;75.16
71177;DHT22;58877;51.992;4.504;2023-10-19T15:21:14;19.97;75.66
71177;DHT22;58877;51.992;4.504;2023-10-19T15:23:43;19.87;75.89
71177;DHT22;58877;51.992;4.504;2023-10-19T15:26:18;19.73;76.24
71177;DHT22;58877;51.992;4.504;2023-10-19T15:28:47;19.63;76.64
71177;DHT22;58877;51.992;4.504;2023-10-19T15:31:16;19.55;76.78
71177;DHT22;58877;51.992;4.504;2023-10-19T15:33:42;19.41;77.22
71177;DHT22;58877;51.992;4.504;2023-10-19T15:36:11;19.41;77.35
71177;DHT22;58877;51.992;4.504;2023-10-19T15:38:36;19.31;77.56
71177;DHT22;58877;51.992;4.504;2023-10-19T15:41:04;19.20;77.94
71177;DHT22;58877;51.992;4.504;2023-10-19T15:43:30;19.10;78.27
71177;DHT22;58877;51.992;4.504;2023-10-19T15:46:00;19.10;78.52
71177;DHT22;58877;51.992;4.504;2023-10-19T15:48:31;19.00;78.69
71177;DHT22;58877;51.992;4.504;2023-10-19T15:51:00;19.00;79.06
71177;DHT22;58877;51.992;4.504;2023-10-19T15:53:25;18.95;79.13
71177;DHT22;58877;51.992;4.504;2023-10-19T15:55:51;19.02;79.01
71177;DHT22;58877;51.992;4.504;2023-10-19T15:58:17;18.92;79.39
71177;DHT22;58877;51.992;4.504;2023-10-19T16:00:45;18.92;79.52
71177;DHT22;58877;51.992;4.504;2023-10-19T16:03:12;18.88;79.43
71177;DHT22;58877;51.992;4.504;2023-10-19T16:05:38;18.93;79.47
71177;DHT22;58877;51.992;4.504;2023-10-19T16:08:07;18.96;79.51
71177;DHT22;58877;51.992;4.504;2023-10-19T16:10:36;18.98;79.49
71177;DHT22;58877;51.992;4.504;2023-10-19T16:13:03;18.99;79.37
71177;DHT22;58877;51.992;4.504;2023-10-19T16:15:29;18.99;79.31